sensor_id;sensor_type;location;lat;lon;timestamp;temperature;humidity
78455;SHT31;67751;51.986;5.696;2023-04-15T00:00:44;11.1;57.2
78455;SHT31;67751;51.986;5.696;2023-04-15T00:03:14;11.1;57.5
78455;SHT31;67751;51.986;5.696;2023-04-15T00:05:43;11.0;57.6
78455;SHT31;67751;51.986;5.696;2023-04-15T00:08:13;11.0;57.7
78455;SHT31;67751;51.986;5.696;2023-04-15T00:10:43;11.0;58.0
78455;SHT31;67751;51.986;5.696;2023-04-15T00:13:13;10.9;58.1
78455;SHT31;67751;51.986;5.696;2023-04-15T00:15:45;10.9;58.4
78455;SHT31;67751;51.986;5.696;2023-04-15T00:18:16;10.9;58.2
78455;SHT31;67751;51.986;5.696;2023-04-15T00:20:46;10.9;58.4
78455;SHT31;67751;51.986;5.696;2023-04-15T00:23:15;10.9;58.2
78455;SHT31;67751;51.986;5.696;2023-04-15T00:25:45;10.9;58.7
78455;SHT31;67751;51.986;5.696;2023-04-15T00:28:15;10.8;58.7
78455;SHT31;67751;51.986;5.696;2023-04-15T00:30:45;10.8;58.9
78455;SHT31;67751;51.986;5.696;2023-04-15T00:33:14;10.8;58.6
78455;SHT31;67751;51.986;5.696;2023-04-15T00:35:46;10.8;58.8
78455;SHT31;67751;51.986;5.696;2023-04-15T00:38:16;10.8;58.8
78455;SHT31;67751;51.986;5.696;2023-04-15T00:40:46;10.8;59.0
78455;SHT31;67751;51.986;5.696;2023-04-15T00:43:16;10.8;58.7
78455;SHT31;67751;51.986;5.696;2023-04-15T00:45:46;10.8;59.2
78455;SHT31;67751;51.986;5.696;2023-04-15T00:48:16;10.8;59.3
78455;SHT31;67751;51.986;5.696;2023-04-15T00:50:45;10.8;59.2
78455;SHT31;67751;51.986;5.696;2023-04-15T00:53:15;10.8;59.1
78455;SHT31;67751;51.986;5.696;2023-04-15T00:55:45;10.8;58.9
78455;SHT31;67751;51.986;5.696;2023-04-15T00:58:15;10.8;58.9
78455;SHT31;67751;51.986;5.696;2023-04-15T01:00:45;10.8;59.1
78455;SHT31;67751;51.986;5.696;2023-04-15T01:03:15;10.8;58.8
78455;SHT31;67751;51.986;5.696;2023-04-15T01:05:45;10.8;58.8
78455;SHT31;67751;51.986;5.696;2023-04-15T01:08:17;10.8;58.6
78455;SHT31;67751;51.986;5.696;2023-04-15T01:10:46;10.8;58.5
78455;SHT31;67751;51.986;5.696;2023-04-15T01:13:16;10.8;58.4
78455;SHT31;67751;51.986;5.696;2023-04-15T01:15:46;10.8;58.8
78455;SHT31;67751;51.986;5.696;2023-04-15T01:18:16;10.8;58.2
78455;SHT31;67751;51.986;5.696;2023-04-15T01:20:46;10.8;58.1
78455;SHT31;67751;51.986;5.696;2023-04-15T01:23:16;10.8;57.2
78455;SHT31;67751;51.986;5.696;2023-04-15T01:25:46;10.7;57.3
78455;SHT31;67751;51.986;5.696;2023-04-15T01:28:19;10.7;57.2
78455;SHT31;67751;51.986;5.696;2023-04-15T01:30:48;10.7;57.1
78455;SHT31;67751;51.986;5.696;2023-04-15T01:33:18;10.7;56.8
78455;SHT31;67751;51.986;5.696;2023-04-15T01:35:47;10.7;57.3
78455;SHT31;67751;51.986;5.696;2023-04-15T01:38:17;10.7;57.2
78455;SHT31;67751;51.986;5.696;2023-04-15T01:40:47;10.7;56.7
78455;SHT31;67751;51.986;5.696;2023-04-15T01:43:19;10.7;57.4
78455;SHT31;67751;51.986;5.696;2023-04-15T01:45:48;10.7;57.1
78455;SHT31;67751;51.986;5.696;2023-04-15T01:48:18;10.7;56.8
78455;SHT31;67751;51.986;5.696;2023-04-15T01:50:48;10.7;57.0
78455;SHT31;67751;51.986;5.696;2023-04-15T01:53:18;10.7;56.8
78455;SHT31;67751;51.986;5.696;2023-04-15T01:55:48;10.7;57.2
78455;SHT31;67751;51.986;5.696;2023-04-15T01:58:18;10.7;57.2
78455;SHT31;67751;51.986;5.696;2023-04-15T02:00:49;10.7;56.8
78455;SHT31;67751;51.986;5.696;2023-04-15T02:03:18;10.6;56.6
78455;SHT31;67751;51.986;5.696;2023-04-15T02:05:48;10.6;56.5
78455;SHT31;67751;51.986;5.696;2023-04-15T02:08:18;10.6;57.1
78455;SHT31;67751;51.986;5.696;2023-04-15T02:10:48;10.6;57.3
78455;SHT31;67751;51.986;5.696;2023-04-15T02:13:19;10.6;57.6
78455;SHT31;67751;51.986;5.696;2023-04-15T02:15:49;10.6;57.2
78455;SHT31;67751;51.986;5.696;2023-04-15T02:18:19;10.6;57.1
78455;SHT31;67751;51.986;5.696;2023-04-15T02:20:50;10.6;57.2
78455;SHT31;67751;51.986;5.696;2023-04-15T02:23:20;10.6;57.3
78455;SHT31;67751;51.986;5.696;2023-04-15T02:25:50;10.6;57.1
78455;SHT31;67751;51.986;5.696;2023-04-15T02:28:19;10.6;57.0
78455;SHT31;67751;51.986;5.696;2023-04-15T02:30:49;10.6;57.4
78455;SHT31;67751;51.986;5.696;2023-04-15T02:33:20;10.6;57.5
78455;SHT31;67751;51.986;5.696;2023-04-15T02:35:51;10.6;57.4
78455;SHT31;67751;51.986;5.696;2023-04-15T02:38:21;10.6;57.4
78455;SHT31;67751;51.986;5.696;2023-04-15T02:40:50;10.5;57.7
78455;SHT31;67751;51.986;5.696;2023-04-15T02:43:20;10.5;57.6
78455;SHT31;67751;51.986;5.696;2023-04-15T02:45:49;10.5;57.7
78455;SHT31;67751;51.986;5.696;2023-04-15T02:48:19;10.5;57.7
78455;SHT31;67751;51.986;5.696;2023-04-15T02:50:49;10.4;58.3
78455;SHT31;67751;51.986;5.696;2023-04-15T02:53:18;10.4;58.4
78455;SHT31;67751;51.986;5.696;2023-04-15T02:55:50;10.4;58.2
78455;SHT31;67751;51.986;5.696;2023-04-15T02:58:19;10.4;58.3
78455;SHT31;67751;51.986;5.696;2023-04-15T03:00:49;10.4;59.1
78455;SHT31;67751;51.986;5.696;2023-04-15T03:03:18;10.4;58.6
78455;SHT31;67751;51.986;5.696;2023-04-15T03:05:48;10.4;58.7
78455;SHT31;67751;51.986;5.696;2023-04-15T03:08:18;10.4;58.8
78455;SHT31;67751;51.986;5.696;2023-04-15T03:10:47;10.4;58.7
78455;SHT31;67751;51.986;5.696;2023-04-15T03:13:19;10.4;58.7
78455;SHT31;67751;51.986;5.696;2023-04-15T03:15:49;10.4;58.8
78455;SHT31;67751;51.986;5.696;2023-04-15T03:18:18;10.3;58.8
78455;SHT31;67751;51.986;5.696;2023-04-15T03:20:48;10.3;58.9
78455;SHT31;67751;51.986;5.696;2023-04-15T03:23:18;10.3;59.0
78455;SHT31;67751;51.986;5.696;2023-04-15T03:25:49;10.3;58.7
78455;SHT31;67751;51.986;5.696;2023-04-15T03:28:22;10.3;58.9
78455;SHT31;67751;51.986;5.696;2023-04-15T03:30:51;10.3;59.3
78455;SHT31;67751;51.986;5.696;2023-04-15T03:33:21;10.2;59.0
78455;SHT31;67751;51.986;5.696;2023-04-15T03:35:52;10.2;58.9
78455;SHT31;67751;51.986;5.696;2023-04-15T03:38:22;10.2;59.2
78455;SHT31;67751;51.986;5.696;2023-04-15T03:40:51;10.2;59.8
78455;SHT31;67751;51.986;5.696;2023-04-15T03:43:21;10.2;59.8
78455;SHT31;67751;51.986;5.696;2023-04-15T03:45:50;10.2;59.6
78455;SHT31;67751;51.986;5.696;2023-04-15T03:48:20;10.2;59.8
78455;SHT31;67751;51.986;5.696;2023-04-15T03:50:51;10.1;59.7
78455;SHT31;67751;51.986;5.696;2023-04-15T03:53:22;10.1;60.0
78455;SHT31;67751;51.986;5.696;2023-04-15T03:55:53;10.1;59.9
78455;SHT31;67751;51.986;5.696;2023-04-15T03:58:23;10.1;60.2
78455;SHT31;67751;51.986;5.696;2023-04-15T04:00:53;10.1;60.0
78455;SHT31;67751;51.986;5.696;2023-04-15T04:03:23;10.1;60.1
78455;SHT31;67751;51.986;5.696;2023-04-15T04:05:55;10.0;60.1
78455;SHT31;67751;51.986;5.696;2023-04-15T04:08:24;10.0;60.5
78455;SHT31;67751;51.986;5.696;2023-04-15T04:10:56;10.0;60.8
78455;SHT31;67751;51.986;5.696;2023-04-15T04:13:25;10.0;61.1
78455;SHT31;67751;51.986;5.696;2023-04-15T04:15:55;9.9;61.2
78455;SHT31;67751;51.986;5.696;2023-04-15T04:18:25;9.9;61.2
78455;SHT31;67751;51.986;5.696;2023-04-15T04:20:54;9.9;61.3
78455;SHT31;67751;51.986;5.696;2023-04-15T04:23:24;9.9;61.3
78455;SHT31;67751;51.986;5.696;2023-04-15T04:25:54;9.9;61.4
78455;SHT31;67751;51.986;5.696;2023-04-15T04:28:24;9.9;61.3
78455;SHT31;67751;51.986;5.696;2023-04-15T04:30:55;9.8;61.4
78455;SHT31;67751;51.986;5.696;2023-04-15T04:33:24;9.8;61.7
78455;SHT31;67751;51.986;5.696;2023-04-15T04:35:54;9.8;61.7
78455;SHT31;67751;51.986;5.696;2023-04-15T04:38:23;9.8;61.8
78455;SHT31;67751;51.986;5.696;2023-04-15T04:40:55;9.8;61.9
78455;SHT31;67751;51.986;5.696;2023-04-15T04:43:24;9.8;61.9
78455;SHT31;67751;51.986;5.696;2023-04-15T04:45:54;9.7;61.9
78455;SHT31;67751;51.986;5.696;2023-04-15T04:48:24;9.7;61.9
78455;SHT31;67751;51.986;5.696;2023-04-15T04:50:54;9.7;61.8
78455;SHT31;67751;51.986;5.696;2023-04-15T04:53:23;9.7;62.0
78455;SHT31;67751;51.986;5.696;2023-04-15T04:55:54;9.7;62.1
78455;SHT31;67751;51.986;5.696;2023-04-15T04:58:24;9.7;62.4
78455;SHT31;67751;51.986;5.696;2023-04-15T05:00:54;9.6;62.5
78455;SHT31;67751;51.986;5.696;2023-04-15T05:03:25;9.6;62.6
78455;SHT31;67751;51.986;5.696;2023-04-15T05:05:55;9.6;62.6
78455;SHT31;67751;51.986;5.696;2023-04-15T05:08:27;9.6;62.7
78455;SHT31;67751;51.986;5.696;2023-04-15T05:10:57;9.6;62.9
78455;SHT31;67751;51.986;5.696;2023-04-15T05:13:27;9.6;62.9
78455;SHT31;67751;51.986;5.696;2023-04-15T05:15:56;9.6;63.3
78455;SHT31;67751;51.986;5.696;2023-04-15T05:18:26;9.6;63.1
78455;SHT31;67751;51.986;5.696;2023-04-15T05:20:55;9.5;62.8
78455;SHT31;67751;51.986;5.696;2023-04-15T05:23:25;9.5;63.3
78455;SHT31;67751;51.986;5.696;2023-04-15T05:25:55;9.5;63.2
78455;SHT31;67751;51.986;5.696;2023-04-15T05:28:26;9.5;63.7
78455;SHT31;67751;51.986;5.696;2023-04-15T05:30:56;9.5;63.8
78455;SHT31;67751;51.986;5.696;2023-04-15T05:33:26;9.5;63.9
78455;SHT31;67751;51.986;5.696;2023-04-15T05:35:56;9.5;64.1
78455;SHT31;67751;51.986;5.696;2023-04-15T05:38:25;9.5;64.0
78455;SHT31;67751;51.986;5.696;2023-04-15T05:40:55;9.5;64.2
78455;SHT31;67751;51.986;5.696;2023-04-15T05:43:24;9.5;64.7
78455;SHT31;67751;51.986;5.696;2023-04-15T05:45:56;9.5;64.9
78455;SHT31;67751;51.986;5.696;2023-04-15T05:48:25;9.5;64.8
78455;SHT31;67751;51.986;5.696;2023-04-15T05:50:57;9.5;64.6
78455;SHT31;67751;51.986;5.696;2023-04-15T05:53:27;9.5;65.1
78455;SHT31;67751;51.986;5.696;2023-04-15T05:55:56;9.5;65.1
78455;SHT31;67751;51.986;5.696;2023-04-15T05:58:26;9.5;65.6
78455;SHT31;67751;51.986;5.696;2023-04-15T06:00:56;9.5;65.5
78455;SHT31;67751;51.986;5.696;2023-04-15T06:03:25;9.6;65.8
78455;SHT31;67751;51.986;5.696;2023-04-15T06:05:55;9.6;66.2
78455;SHT31;67751;51.986;5.696;2023-04-15T06:08:25;9.6;66.6
78455;SHT31;67751;51.986;5.696;2023-04-15T06:10:55;9.6;66.5
78455;SHT31;67751;51.986;5.696;2023-04-15T06:13:25;9.6;66.5
78455;SHT31;67751;51.986;5.696;2023-04-15T06:15:55;9.7;66.8
78455;SHT31;67751;51.986;5.696;2023-04-15T06:18:25;9.7;67.1
78455;SHT31;67751;51.986;5.696;2023-04-15T06:20:54;9.8;66.8
78455;SHT31;67751;51.986;5.696;2023-04-15T06:23:24;9.8;66.9
78455;SHT31;67751;51.986;5.696;2023-04-15T06:25:54;9.9;67.1
78455;SHT31;67751;51.986;5.696;2023-04-15T06:28:23;9.9;67.0
78455;SHT31;67751;51.986;5.696;2023-04-15T06:30:53;10.0;66.4
78455;SHT31;67751;51.986;5.696;2023-04-15T06:33:24;10.0;66.8
78455;SHT31;67751;51.986;5.696;2023-04-15T06:35:54;10.0;67.0
78455;SHT31;67751;51.986;5.696;2023-04-15T06:38:23;10.1;66.9
78455;SHT31;67751;51.986;5.696;2023-04-15T06:40:53;10.1;66.9
78455;SHT31;67751;51.986;5.696;2023-04-15T06:43:22;10.1;66.4
78455;SHT31;67751;51.986;5.696;2023-04-15T06:45:52;10.2;66.2
78455;SHT31;67751;51.986;5.696;2023-04-15T06:48:22;10.2;66.8
78455;SHT31;67751;51.986;5.696;2023-04-15T06:50:51;10.2;66.7
78455;SHT31;67751;51.986;5.696;2023-04-15T06:53:21;10.3;66.6
78455;SHT31;67751;51.986;5.696;2023-04-15T06:55:52;10.3;66.8
78455;SHT31;67751;51.986;5.696;2023-04-15T06:58:22;10.4;66.5
78455;SHT31;67751;51.986;5.696;2023-04-15T07:00:52;10.4;66.8
78455;SHT31;67751;51.986;5.696;2023-04-15T07:03:22;10.4;66.3
78455;SHT31;67751;51.986;5.696;2023-04-15T07:05:51;10.4;66.2
78455;SHT31;67751;51.986;5.696;2023-04-15T07:08:22;10.5;66.4
78455;SHT31;67751;51.986;5.696;2023-04-15T07:10:52;10.5;65.8
78455;SHT31;67751;51.986;5.696;2023-04-15T07:13:22;10.5;65.9
78455;SHT31;67751;51.986;5.696;2023-04-15T07:15:51;10.6;65.7
78455;SHT31;67751;51.986;5.696;2023-04-15T07:18:21;10.6;65.3
78455;SHT31;67751;51.986;5.696;2023-04-15T07:20:50;10.6;64.6
78455;SHT31;67751;51.986;5.696;2023-04-15T07:23:20;10.7;65.1
78455;SHT31;67751;51.986;5.696;2023-04-15T07:25:50;10.7;65.5
78455;SHT31;67751;51.986;5.696;2023-04-15T07:28:20;10.7;64.5
78455;SHT31;67751;51.986;5.696;2023-04-15T07:30:49;10.8;64.6
78455;SHT31;67751;51.986;5.696;2023-04-15T07:33:19;10.8;63.1
78455;SHT31;67751;51.986;5.696;2023-04-15T07:35:48;10.8;63.1
78455;SHT31;67751;51.986;5.696;2023-04-15T07:38:18;10.8;63.6
78455;SHT31;67751;51.986;5.696;2023-04-15T07:40:48;10.9;61.5
78455;SHT31;67751;51.986;5.696;2023-04-15T07:43:17;10.9;62.6
78455;SHT31;67751;51.986;5.696;2023-04-15T07:45:47;10.9;62.5
78455;SHT31;67751;51.986;5.696;2023-04-15T07:48:17;10.9;62.3
78455;SHT31;67751;51.986;5.696;2023-04-15T07:50:47;10.9;62.2
78455;SHT31;67751;51.986;5.696;2023-04-15T07:53:16;10.9;62.6
78455;SHT31;67751;51.986;5.696;2023-04-15T07:55:46;10.9;62.2
78455;SHT31;67751;51.986;5.696;2023-04-15T07:58:16;10.9;62.8
78455;SHT31;67751;51.986;5.696;2023-04-15T08:00:46;11.0;61.6
78455;SHT31;67751;51.986;5.696;2023-04-15T08:03:16;11.0;61.9
78455;SHT31;67751;51.986;5.696;2023-04-15T08:05:45;11.0;62.0
78455;SHT31;67751;51.986;5.696;2023-04-15T08:08:17;11.0;60.4
78455;SHT31;67751;51.986;5.696;2023-04-15T08:10:47;11.1;60.5
78455;SHT31;67751;51.986;5.696;2023-04-15T08:13:18;11.1;61.6
78455;SHT31;67751;51.986;5.696;2023-04-15T08:16:17;11.1;60.9
78455;SHT31;67751;51.986;5.696;2023-04-15T08:18:48;11.2;60.9
78455;SHT31;67751;51.986;5.696;2023-04-15T08:21:19;11.2;61.2
78455;SHT31;67751;51.986;5.696;2023-04-15T08:23:50;11.2;60.1
78455;SHT31;67751;51.986;5.696;2023-04-15T08:26:20;11.2;60.3
78455;SHT31;67751;51.986;5.696;2023-04-15T08:28:50;11.3;60.9
78455;SHT31;67751;51.986;5.696;2023-04-15T08:31:20;11.3;61.4
78455;SHT31;67751;51.986;5.696;2023-04-15T08:33:50;11.3;61.7
78455;SHT31;67751;51.986;5.696;2023-04-15T08:36:21;11.3;61.4
78455;SHT31;67751;51.986;5.696;2023-04-15T08:38:51;11.4;60.4
78455;SHT31;67751;51.986;5.696;2023-04-15T08:41:22;11.4;59.7
78455;SHT31;67751;51.986;5.696;2023-04-15T08:43:57;11.4;60.2
78455;SHT31;67751;51.986;5.696;2023-04-15T08:46:31;11.5;59.5
78455;SHT31;67751;51.986;5.696;2023-04-15T08:49:03;11.5;59.5
78455;SHT31;67751;51.986;5.696;2023-04-15T08:51:33;11.6;59.5
78455;SHT31;67751;51.986;5.696;2023-04-15T08:54:04;11.6;60.6
78455;SHT31;67751;51.986;5.696;2023-04-15T08:56:34;11.6;59.2
78455;SHT31;67751;51.986;5.696;2023-04-15T08:59:04;11.6;59.5
78455;SHT31;67751;51.986;5.696;2023-04-15T09:01:36;11.7;60.2
78455;SHT31;67751;51.986;5.696;2023-04-15T09:04:06;11.7;60.8
78455;SHT31;67751;51.986;5.696;2023-04-15T09:06:38;11.8;58.7
78455;SHT31;67751;51.986;5.696;2023-04-15T09:09:08;11.8;58.5
78455;SHT31;67751;51.986;5.696;2023-04-15T09:11:38;11.9;58.9
78455;SHT31;67751;51.986;5.696;2023-04-15T09:14:07;11.9;57.8
78455;SHT31;67751;51.986;5.696;2023-04-15T09:16:57;11.9;58.7
78455;SHT31;67751;51.986;5.696;2023-04-15T09:19:27;12.0;57.2
78455;SHT31;67751;51.986;5.696;2023-04-15T09:21:58;12.1;59.2
78455;SHT31;67751;51.986;5.696;2023-04-15T09:24:36;12.1;58.7
78455;SHT31;67751;51.986;5.696;2023-04-15T09:27:09;12.2;58.0
78455;SHT31;67751;51.986;5.696;2023-04-15T09:29:40;12.2;56.9
78455;SHT31;67751;51.986;5.696;2023-04-15T09:32:11;12.3;56.1
78455;SHT31;67751;51.986;5.696;2023-04-15T09:34:43;12.4;58.0
78455;SHT31;67751;51.986;5.696;2023-04-15T09:37:13;12.4;56.2
78455;SHT31;67751;51.986;5.696;2023-04-15T09:39:50;12.5;54.7
78455;SHT31;67751;51.986;5.696;2023-04-15T09:42:20;12.5;53.7
78455;SHT31;67751;51.986;5.696;2023-04-15T09:44:51;12.6;53.8
78455;SHT31;67751;51.986;5.696;2023-04-15T09:47:31;12.6;53.2
78455;SHT31;67751;51.986;5.696;2023-04-15T09:50:02;12.7;53.6
78455;SHT31;67751;51.986;5.696;2023-04-15T09:52:32;12.7;53.5
78455;SHT31;67751;51.986;5.696;2023-04-15T09:55:02;12.8;54.0
78455;SHT31;67751;51.986;5.696;2023-04-15T09:57:36;12.8;54.2
78455;SHT31;67751;51.986;5.696;2023-04-15T10:00:08;12.9;52.9
78455;SHT31;67751;51.986;5.696;2023-04-15T10:02:39;13.0;52.9
78455;SHT31;67751;51.986;5.696;2023-04-15T10:05:14;13.0;53.6
78455;SHT31;67751;51.986;5.696;2023-04-15T10:07:45;13.1;53.5
78455;SHT31;67751;51.986;5.696;2023-04-15T10:10:16;13.1;53.4
78455;SHT31;67751;51.986;5.696;2023-04-15T10:12:46;13.2;53.7
78455;SHT31;67751;51.986;5.696;2023-04-15T10:15:17;13.2;53.9
78455;SHT31;67751;51.986;5.696;2023-04-15T10:17:50;13.3;52.7
78455;SHT31;67751;51.986;5.696;2023-04-15T10:20:22;13.3;52.8
78455;SHT31;67751;51.986;5.696;2023-04-15T10:22:52;13.4;53.5
78455;SHT31;67751;51.986;5.696;2023-04-15T10:25:22;13.4;53.3
78455;SHT31;67751;51.986;5.696;2023-04-15T10:27:55;13.5;52.2
78455;SHT31;67751;51.986;5.696;2023-04-15T10:30:25;13.5;51.9
78455;SHT31;67751;51.986;5.696;2023-04-15T10:32:56;13.5;52.5
78455;SHT31;67751;51.986;5.696;2023-04-15T10:35:26;13.5;52.1
78455;SHT31;67751;51.986;5.696;2023-04-15T10:37:57;13.5;53.5
78455;SHT31;67751;51.986;5.696;2023-04-15T10:40:29;13.6;53.3
78455;SHT31;67751;51.986;5.696;2023-04-15T10:43:01;13.6;53.2
78455;SHT31;67751;51.986;5.696;2023-04-15T10:45:34;13.6;53.5
78455;SHT31;67751;51.986;5.696;2023-04-15T10:48:06;13.7;52.1
78455;SHT31;67751;51.986;5.696;2023-04-15T10:50:36;13.7;52.7
78455;SHT31;67751;51.986;5.696;2023-04-15T10:53:09;13.7;53.0
78455;SHT31;67751;51.986;5.696;2023-04-15T10:55:39;13.7;53.3
78455;SHT31;67751;51.986;5.696;2023-04-15T10:58:09;13.8;52.1
78455;SHT31;67751;51.986;5.696;2023-04-15T11:00:52;13.8;52.1
78455;SHT31;67751;51.986;5.696;2023-04-15T11:03:37;13.8;53.3
78455;SHT31;67751;51.986;5.696;2023-04-15T11:06:08;13.8;54.2
78455;SHT31;67751;51.986;5.696;2023-04-15T11:08:58;13.8;52.7
78455;SHT31;67751;51.986;5.696;2023-04-15T11:12:06;13.9;52.9
78455;SHT31;67751;51.986;5.696;2023-04-15T11:14:41;13.9;51.7
78455;SHT31;67751;51.986;5.696;2023-04-15T11:17:11;14.0;53.0
78455;SHT31;67751;51.986;5.696;2023-04-15T11:19:42;14.0;51.2
78455;SHT31;67751;51.986;5.696;2023-04-15T11:22:12;14.1;51.0
78455;SHT31;67751;51.986;5.696;2023-04-15T11:24:47;14.1;51.9
78455;SHT31;67751;51.986;5.696;2023-04-15T11:27:22;14.1;50.3
78455;SHT31;67751;51.986;5.696;2023-04-15T11:29:52;14.2;49.3
78455;SHT31;67751;51.986;5.696;2023-04-15T11:32:22;14.3;49.2
78455;SHT31;67751;51.986;5.696;2023-04-15T11:34:52;14.3;50.0
78455;SHT31;67751;51.986;5.696;2023-04-15T11:37:29;14.3;50.0
78455;SHT31;67751;51.986;5.696;2023-04-15T11:40:01;14.4;50.2
78455;SHT31;67751;51.986;5.696;2023-04-15T11:42:31;14.4;50.5
78455;SHT31;67751;51.986;5.696;2023-04-15T11:45:07;14.3;49.5
78455;SHT31;67751;51.986;5.696;2023-04-15T11:47:38;14.3;50.2
78455;SHT31;67751;51.986;5.696;2023-04-15T11:50:16;14.3;49.2
78455;SHT31;67751;51.986;5.696;2023-04-15T11:52:57;14.3;50.6
78455;SHT31;67751;51.986;5.696;2023-04-15T11:55:28;14.3;51.1
78455;SHT31;67751;51.986;5.696;2023-04-15T11:58:07;14.3;49.7
78455;SHT31;67751;51.986;5.696;2023-04-15T12:00:40;14.4;51.3
78455;SHT31;67751;51.986;5.696;2023-04-15T12:03:17;14.4;51.0
78455;SHT31;67751;51.986;5.696;2023-04-15T12:08:05;14.5;52.7
78455;SHT31;67751;51.986;5.696;2023-04-15T12:10:35;14.6;49.0
78455;SHT31;67751;51.986;5.696;2023-04-15T12:13:08;14.6;48.9
78455;SHT31;67751;51.986;5.696;2023-04-15T12:15:40;14.6;50.2
78455;SHT31;67751;51.986;5.696;2023-04-15T12:18:18;14.7;50.7
78455;SHT31;67751;51.986;5.696;2023-04-15T12:20:47;14.7;49.0
78455;SHT31;67751;51.986;5.696;2023-04-15T12:23:20;14.8;50.2
78455;SHT31;67751;51.986;5.696;2023-04-15T12:25:52;14.8;49.7
78455;SHT31;67751;51.986;5.696;2023-04-15T12:28:21;14.8;49.5
78455;SHT31;67751;51.986;5.696;2023-04-15T12:30:51;14.9;49.1
78455;SHT31;67751;51.986;5.696;2023-04-15T12:33:20;14.9;49.3
78455;SHT31;67751;51.986;5.696;2023-04-15T12:35:50;14.9;49.5
78455;SHT31;67751;51.986;5.696;2023-04-15T12:38:19;14.9;49.8
78455;SHT31;67751;51.986;5.696;2023-04-15T12:40:49;14.9;49.0
78455;SHT31;67751;51.986;5.696;2023-04-15T12:43:19;14.9;51.1
78455;SHT31;67751;51.986;5.696;2023-04-15T12:45:50;14.9;48.3
78455;SHT31;67751;51.986;5.696;2023-04-15T12:48:20;14.9;48.0
78455;SHT31;67751;51.986;5.696;2023-04-15T12:50:51;14.9;47.9
78455;SHT31;67751;51.986;5.696;2023-04-15T12:53:21;14.9;48.3
78455;SHT31;67751;51.986;5.696;2023-04-15T12:55:51;14.8;47.8
78455;SHT31;67751;51.986;5.696;2023-04-15T12:58:20;14.8;48.6
78455;SHT31;67751;51.986;5.696;2023-04-15T13:00:50;14.8;49.2
78455;SHT31;67751;51.986;5.696;2023-04-15T13:03:19;14.8;49.2
78455;SHT31;67751;51.986;5.696;2023-04-15T13:05:49;14.7;48.3
78455;SHT31;67751;51.986;5.696;2023-04-15T13:08:19;14.7;48.6
78455;SHT31;67751;51.986;5.696;2023-04-15T13:10:49;14.7;49.4
78455;SHT31;67751;51.986;5.696;2023-04-15T13:13:20;14.6;49.5
78455;SHT31;67751;51.986;5.696;2023-04-15T13:15:50;14.6;49.0
78455;SHT31;67751;51.986;5.696;2023-04-15T13:18:19;14.6;51.1
78455;SHT31;67751;51.986;5.696;2023-04-15T13:20:50;14.6;49.6
78455;SHT31;67751;51.986;5.696;2023-04-15T13:23:20;14.6;49.6
78455;SHT31;67751;51.986;5.696;2023-04-15T13:25:49;14.5;49.3
78455;SHT31;67751;51.986;5.696;2023-04-15T13:28:19;14.5;49.9
78455;SHT31;67751;51.986;5.696;2023-04-15T13:30:49;14.5;48.5
78455;SHT31;67751;51.986;5.696;2023-04-15T13:33:20;14.5;48.8
78455;SHT31;67751;51.986;5.696;2023-04-15T13:35:50;14.5;49.4
78455;SHT31;67751;51.986;5.696;2023-04-15T13:38:19;14.4;49.8
78455;SHT31;67751;51.986;5.696;2023-04-15T13:40:49;14.4;49.8
78455;SHT31;67751;51.986;5.696;2023-04-15T13:43:19;14.4;50.9
78455;SHT31;67751;51.986;5.696;2023-04-15T13:45:49;14.4;49.8
78455;SHT31;67751;51.986;5.696;2023-04-15T13:48:19;14.4;50.1
78455;SHT31;67751;51.986;5.696;2023-04-15T13:50:49;14.3;49.6
78455;SHT31;67751;51.986;5.696;2023-04-15T13:53:18;14.3;49.4
78455;SHT31;67751;51.986;5.696;2023-04-15T13:55:48;14.3;49.3
78455;SHT31;67751;51.986;5.696;2023-04-15T13:58:18;14.2;49.7
78455;SHT31;67751;51.986;5.696;2023-04-15T14:00:47;14.2;50.1
78455;SHT31;67751;51.986;5.696;2023-04-15T14:03:17;14.1;50.9
78455;SHT31;67751;51.986;5.696;2023-04-15T14:05:47;14.1;50.5
78455;SHT31;67751;51.986;5.696;2023-04-15T14:08:19;14.1;51.1
78455;SHT31;67751;51.986;5.696;2023-04-15T14:10:49;14.1;51.0
78455;SHT31;67751;51.986;5.696;2023-04-15T14:13:19;14.0;51.8
78455;SHT31;67751;51.986;5.696;2023-04-15T14:15:50;14.0;53.5
78455;SHT31;67751;51.986;5.696;2023-04-15T14:18:20;14.0;52.8
78455;SHT31;67751;51.986;5.696;2023-04-15T14:20:49;14.0;54.1
78455;SHT31;67751;51.986;5.696;2023-04-15T14:23:19;14.0;53.0
78455;SHT31;67751;51.986;5.696;2023-04-15T14:25:49;14.0;52.8
78455;SHT31;67751;51.986;5.696;2023-04-15T14:28:18;14.0;51.9
78455;SHT31;67751;51.986;5.696;2023-04-15T14:30:48;13.9;52.0
78455;SHT31;67751;51.986;5.696;2023-04-15T14:33:18;13.9;52.3
78455;SHT31;67751;51.986;5.696;2023-04-15T14:35:48;13.9;52.2
78455;SHT31;67751;51.986;5.696;2023-04-15T14:38:20;13.9;52.5
78455;SHT31;67751;51.986;5.696;2023-04-15T14:40:49;13.8;53.1
78455;SHT31;67751;51.986;5.696;2023-04-15T14:43:19;13.8;53.7
78455;SHT31;67751;51.986;5.696;2023-04-15T14:45:49;13.8;54.5
78455;SHT31;67751;51.986;5.696;2023-04-15T14:48:18;13.7;54.1
78455;SHT31;67751;51.986;5.696;2023-04-15T14:50:48;13.7;54.2
78455;SHT31;67751;51.986;5.696;2023-04-15T14:53:18;13.6;54.3
78455;SHT31;67751;51.986;5.696;2023-04-15T14:55:47;13.6;54.5
78455;SHT31;67751;51.986;5.696;2023-04-15T14:58:17;13.6;54.1
78455;SHT31;67751;51.986;5.696;2023-04-15T15:00:47;13.5;54.6
78455;SHT31;67751;51.986;5.696;2023-04-15T15:03:17;13.4;55.5
78455;SHT31;67751;51.986;5.696;2023-04-15T15:05:47;13.4;55.7
78455;SHT31;67751;51.986;5.696;2023-04-15T15:08:16;13.4;55.3
78455;SHT31;67751;51.986;5.696;2023-04-15T15:10:46;13.4;55.0
78455;SHT31;67751;51.986;5.696;2023-04-15T15:13:16;13.4;54.9
78455;SHT31;67751;51.986;5.696;2023-04-15T15:15:46;13.4;55.7
78455;SHT31;67751;51.986;5.696;2023-04-15T15:18:17;13.3;56.5
78455;SHT31;67751;51.986;5.696;2023-04-15T15:20:47;13.3;56.0
78455;SHT31;67751;51.986;5.696;2023-04-15T15:23:17;13.3;56.6
78455;SHT31;67751;51.986;5.696;2023-04-15T15:25:47;13.3;56.5
78455;SHT31;67751;51.986;5.696;2023-04-15T15:28:17;13.2;57.2
78455;SHT31;67751;51.986;5.696;2023-04-15T15:30:48;13.2;56.9
78455;SHT31;67751;51.986;5.696;2023-04-15T15:33:17;13.1;56.5
78455;SHT31;67751;51.986;5.696;2023-04-15T15:35:47;13.1;57.0
78455;SHT31;67751;51.986;5.696;2023-04-15T15:38:17;13.0;57.3
78455;SHT31;67751;51.986;5.696;2023-04-15T15:40:47;13.0;57.5
78455;SHT31;67751;51.986;5.696;2023-04-15T15:43:16;13.0;56.6
78455;SHT31;67751;51.986;5.696;2023-04-15T15:45:46;12.9;56.6
78455;SHT31;67751;51.986;5.696;2023-04-15T15:48:18;12.9;57.0
78455;SHT31;67751;51.986;5.696;2023-04-15T15:50:49;12.9;57.3
78455;SHT31;67751;51.986;5.696;2023-04-15T15:53:20;12.9;57.4
78455;SHT31;67751;51.986;5.696;2023-04-15T15:55:53;12.9;57.0
78455;SHT31;67751;51.986;5.696;2023-04-15T15:58:23;12.8;57.3
78455;SHT31;67751;51.986;5.696;2023-04-15T16:00:53;12.8;57.5
78455;SHT31;67751;51.986;5.696;2023-04-15T16:03:23;12.8;57.5
78455;SHT31;67751;51.986;5.696;2023-04-15T16:05:53;12.7;57.5
78455;SHT31;67751;51.986;5.696;2023-04-15T16:08:22;12.7;58.6
78455;SHT31;67751;51.986;5.696;2023-04-15T16:10:53;12.7;58.6
78455;SHT31;67751;51.986;5.696;2023-04-15T16:13:23;12.7;57.4
78455;SHT31;67751;51.986;5.696;2023-04-15T16:15:54;12.7;57.7
78455;SHT31;67751;51.986;5.696;2023-04-15T16:18:26;12.6;57.6
78455;SHT31;67751;51.986;5.696;2023-04-15T16:20:55;12.6;57.8
78455;SHT31;67751;51.986;5.696;2023-04-15T16:23:25;12.6;58.1
78455;SHT31;67751;51.986;5.696;2023-04-15T16:25:55;12.6;58.9
78455;SHT31;67751;51.986;5.696;2023-04-15T16:28:24;12.5;58.8